Rafsanjan, ایران

03:46 PM IRST on ژانویه 29, 2015 (GMT +0330)
Kerman | Change Station
CLOSE
Current Station
Airport
Location: Kerman,
Elevation: 5755 ft
Nearby Weather Stations

Elev 5755 ft 30.25 °N, 56.97 °E | Updated 16 minutes ago

Scattered Clouds
ابرهای پراکنده
72 °F
Feels Like 72 °F
N
5
باد متغير باد from ENE

امروز
High -- | Low -- °F
--% Chance of Precip.
دیروز
High -- | Low -- °F
Precip. -- در
6:38 AM 5:19 PM
Waxing Gibbous, 74% visible
فشار 30.09 در
ديد 6.2 مايل، ميل (در برابر كيلومتر
ابری Few 4000 ft
ابرهای پراکنده 19000 ft
قطره شبنم 9 °F
رطوبت 9%
بارش باران 0.00 در
برف عمیق Not available.
مادون قرمز 1 out of 12
Pollen Not available.
تمیزی هوا Not available.
Flu Activity Not available.
METAR OIKK 291200Z 07004KT 9999 FEW040 SCT190 22/M13 Q1019 A3011

More Conditions Fewer Conditions

فشار 30.09 در
ديد 6.2 مايل، ميل (در برابر كيلومتر
ابری Few 4000 ft
ابرهای پراکنده 19000 ft
قطره شبنم 9 °F
رطوبت 9%
بارش باران 0.00 در
برف عمیق Not available.
مادون قرمز 1 out of 12
Pollen Not available.
تمیزی هوا Not available.
Flu Activity Not available.
METAR OIKK 291200Z 07004KT 9999 FEW040 SCT190 22/M13 Q1019 A3011

More Conditions Fewer Conditions

10-Day Weather Forecast

Almanac

ستاره شناسی

Jan. 29, 2015 Rise Set
وقت حقیقی
تاریک و روشن اجتماعی
تاریک روشن دریایی
شفق و فلق نجومی
ماه
میزان روشنایی روز
طول روز
Tomorrow will be .
, % of the Moon is Illuminated

Today's Extremes

Country Highs Country Lows

Community

WunderPhotos

Upload Photos

1,791,418 photos uploaded!

WunderBlogs® & News

Nearby

تمیزی هوا

  تمیزی هوا AQ Index آلاینده
Not available.

عمق برف

Station Depth Elevation

Earthquake Activity

شهر Distance Mag. Time & Date
Minimum magnitude displayed is 2.5.

Coastal Water Temperatures

منطقه درجه حرارت

Nearby Weather Stations